createdAt,value
2023-04-24T00:01:30.699Z,4.72
2023-04-24T00:06:50.667Z,4.40
2023-04-24T00:12:06.408Z,4.40
2023-04-24T00:17:22.855Z,4.20
2023-04-24T00:22:38.853Z,5.18
2023-04-24T00:27:54.721Z,4.93
2023-04-24T00:33:10.737Z,4.85
2023-04-24T00:38:26.713Z,4.20
2023-04-24T00:43:42.631Z,4.80
2023-04-24T00:49:00.189Z,4.50
2023-04-24T00:54:16.447Z,5.38
2023-04-24T00:59:32.705Z,5.22
2023-04-24T01:04:48.267Z,4.95
2023-04-24T01:10:04.660Z,4.60
2023-04-24T01:15:20.296Z,4.80
2023-04-24T01:20:41.087Z,4.47
2023-04-24T01:25:56.947Z,4.88
2023-04-24T01:31:12.894Z,5.28
2023-04-24T01:36:30.658Z,5.80
2023-04-24T01:41:46.382Z,5.47
2023-04-24T01:47:03.458Z,5.20
2023-04-24T01:52:20.085Z,4.57
2023-04-24T01:57:36.935Z,5.38
2023-04-24T02:02:52.841Z,4.47
2023-04-24T02:08:08.897Z,4.50
2023-04-24T02:13:24.484Z,5.18
2023-04-24T02:18:40.421Z,3.90
2023-04-24T02:23:56.193Z,5.18
2023-04-24T02:29:11.798Z,5.28
2023-04-24T02:34:27.599Z,5.10
2023-04-24T02:39:43.157Z,4.78
2023-04-24T02:44:59.767Z,4.63
2023-04-24T02:50:15.331Z,4.43
2023-04-24T02:55:31.455Z,4.38
2023-04-24T03:00:48.548Z,4.53
2023-04-24T03:06:06.975Z,4.57
2023-04-24T03:11:22.797Z,4.15
2023-04-24T03:16:38.713Z,4.28
2023-04-24T03:21:54.276Z,4.82
2023-04-24T03:27:10.075Z,4.25
2023-04-24T03:32:26.179Z,4.57
2023-04-24T03:37:42.119Z,4.57
2023-04-24T03:42:58.493Z,5.00
2023-04-24T03:48:14.300Z,4.82
2023-04-24T03:53:31.273Z,4.45
2023-04-24T03:58:47.176Z,5.53
2023-04-24T04:04:03.535Z,6.00
2023-04-24T04:09:19.905Z,4.85
2023-04-24T04:14:35.191Z,5.18
2023-04-24T04:19:51.890Z,6.07
2023-04-24T04:25:07.971Z,4.78
2023-04-24T04:30:24.639Z,6.00
2023-04-24T04:35:42.346Z,5.63
2023-04-24T04:40:58.784Z,5.38
2023-04-24T04:46:14.344Z,5.88
2023-04-24T04:51:31.439Z,5.93
2023-04-24T04:56:47.204Z,6.35
2023-04-24T05:02:02.709Z,6.57
2023-04-24T05:07:19.489Z,6.97
2023-04-24T05:12:35.243Z,6.03
2023-04-24T05:17:51.348Z,6.40
2023-04-24T05:23:07.030Z,7.18
2023-04-24T05:28:23.018Z,6.13
2023-04-24T05:33:39.057Z,6.50
2023-04-24T05:38:55.300Z,6.00
2023-04-24T05:44:10.999Z,5.53
2023-04-24T05:49:27.022Z,6.15
2023-04-24T05:54:42.951Z,6.80
2023-04-24T05:59:58.821Z,6.35
2023-04-24T06:05:14.742Z,5.43
2023-04-24T06:10:30.796Z,5.55
2023-04-24T06:15:46.808Z,4.65
2023-04-24T06:21:02.420Z,5.18
2023-04-24T06:26:18.392Z,5.43
2023-04-24T06:31:38.365Z,4.40
2023-04-24T06:36:56.248Z,5.30
2023-04-24T06:42:11.787Z,4.35
2023-04-24T06:47:27.782Z,4.68
2023-04-24T06:52:43.700Z,4.97
2023-04-24T06:57:59.841Z,5.50
2023-04-24T07:03:16.164Z,4.32
2023-04-24T07:08:32.094Z,5.15
2023-04-24T07:13:48.057Z,4.32
2023-04-24T07:19:04.143Z,5.43
2023-04-24T07:24:21.766Z,5.05
2023-04-24T07:29:38.929Z,4.90
2023-04-24T07:34:54.886Z,4.95
2023-04-24T07:40:11.353Z,4.90
2023-04-24T07:45:29.243Z,5.13
2023-04-24T07:50:46.831Z,5.13
2023-04-24T07:56:02.519Z,5.65
2023-04-24T08:01:18.346Z,6.10
2023-04-24T08:06:34.244Z,5.65
2023-04-24T08:11:51.447Z,6.05
2023-04-24T08:17:07.250Z,6.93
2023-04-24T08:22:23.113Z,5.68
2023-04-24T08:27:40.022Z,7.50
2023-04-24T08:32:56.110Z,6.40
2023-04-24T08:38:12.059Z,7.10
2023-04-24T08:43:28.792Z,7.55
2023-04-24T08:48:45.661Z,8.63
2023-04-24T08:54:03.433Z,3.50
2023-04-24T08:59:20.100Z,2.38
2023-04-24T09:04:37.697Z,1.40
2023-04-24T09:09:54.314Z,1.15
2023-04-24T09:15:11.383Z,1.25
2023-04-24T09:20:27.121Z,1.13
2023-04-24T09:25:42.997Z,0.80
2023-04-24T09:31:20.277Z,1.13
2023-04-24T09:36:42.811Z,0.88
2023-04-24T09:41:59.266Z,1.30
2023-04-24T09:47:14.816Z,1.15
2023-04-24T09:52:30.690Z,2.00
2023-04-24T09:58:06.632Z,1.05
2023-04-24T10:03:25.387Z,1.77
2023-04-24T10:08:41.835Z,1.02
2023-04-24T10:13:58.466Z,2.67
2023-04-24T10:19:16.434Z,1.15
2023-04-24T10:24:33.333Z,0.93
2023-04-24T10:29:51.425Z,0.65
2023-04-24T10:35:15.449Z,1.25
2023-04-24T10:40:34.477Z,0.55
2023-04-24T10:46:04.631Z,0.68
2023-04-24T10:51:24.568Z,0.50
2023-04-24T10:56:41.594Z,0.60
2023-04-24T11:01:57.277Z,0.65
2023-04-24T11:07:13.568Z,0.90
2023-04-24T11:12:29.332Z,0.98
2023-04-24T11:17:45.417Z,0.73
2023-04-24T11:23:05.449Z,0.40
2023-04-24T11:28:21.049Z,0.50
2023-04-24T11:33:37.073Z,0.50
2023-04-24T11:38:53.128Z,0.73
2023-04-24T11:44:10.507Z,0.60
2023-04-24T11:49:26.003Z,0.43
2023-04-24T11:54:52.368Z,0.85
2023-04-24T12:00:09.630Z,0.60
2023-04-24T12:05:28.686Z,0.70
2023-04-24T12:10:45.081Z,0.85
2023-04-24T12:16:06.413Z,0.60
2023-04-24T12:21:24.394Z,0.73
2023-04-24T12:26:44.681Z,0.40
2023-04-24T12:32:00.927Z,1.00
2023-04-24T12:37:16.717Z,0.80
2023-04-24T12:42:32.699Z,0.80
2023-04-24T12:47:50.699Z,1.10
2023-04-24T12:53:10.262Z,0.70
2023-04-24T12:58:26.571Z,0.82
2023-04-24T13:03:42.802Z,0.70
2023-04-24T13:08:59.170Z,0.80
2023-04-24T13:14:15.398Z,0.80
2023-04-24T13:19:31.453Z,0.63
2023-04-24T13:24:49.633Z,0.68
2023-04-24T13:30:06.212Z,0.68
2023-04-24T13:35:21.899Z,0.80
2023-04-24T13:40:37.678Z,0.60
2023-04-24T13:45:53.614Z,0.98
2023-04-24T13:51:09.668Z,0.75
2023-04-24T13:56:25.132Z,1.00
2023-04-24T14:01:40.752Z,1.15
2023-04-24T14:06:56.907Z,1.05
2023-04-24T14:12:12.725Z,0.60
2023-04-24T14:17:29.231Z,1.00
2023-04-24T14:22:44.981Z,1.15
2023-04-24T14:28:00.973Z,1.05
2023-04-24T14:33:17.252Z,1.15
2023-04-24T14:38:33.210Z,1.08
2023-04-24T14:43:48.943Z,0.90
2023-04-24T14:49:04.863Z,1.17
2023-04-24T14:54:20.952Z,1.00
2023-04-24T14:59:36.643Z,0.90
2023-04-24T15:04:52.720Z,1.45
2023-04-24T15:10:09.473Z,1.23
2023-04-24T15:15:25.487Z,1.58
2023-04-24T15:20:42.453Z,1.40
2023-04-24T15:25:58.872Z,0.80
2023-04-24T15:31:14.720Z,0.90
2023-04-24T15:36:31.171Z,0.80
2023-04-24T15:41:46.969Z,0.90
2023-04-24T15:47:03.045Z,1.35
2023-04-24T15:52:18.986Z,1.15
2023-04-24T15:57:34.879Z,1.02
2023-04-24T16:02:51.782Z,0.70
2023-04-24T16:08:07.911Z,0.60
2023-04-24T16:13:24.014Z,1.13
2023-04-24T16:18:39.905Z,1.05
2023-04-24T16:23:55.824Z,0.95
2023-04-24T16:29:11.796Z,1.50
2023-04-24T16:34:27.398Z,1.20
2023-04-24T16:39:46.536Z,1.00
2023-04-24T16:45:02.342Z,0.77
2023-04-24T16:50:18.372Z,1.70
2023-04-24T16:55:34.460Z,2.03
2023-04-24T17:00:50.845Z,2.33
2023-04-24T17:06:07.600Z,1.58
2023-04-24T17:11:23.377Z,1.60
2023-04-24T17:16:41.225Z,2.10
2023-04-24T17:21:58.368Z,2.20
2023-04-24T17:27:15.550Z,2.17
2023-04-24T17:32:31.538Z,2.47
2023-04-24T17:37:47.621Z,2.00
2023-04-24T17:43:03.669Z,2.95
2023-04-24T17:48:20.341Z,2.95
2023-04-24T17:53:36.920Z,1.92
2023-04-24T17:58:52.934Z,2.42
2023-04-24T18:04:09.580Z,3.35
2023-04-24T18:09:25.319Z,3.08
2023-04-24T18:14:41.396Z,2.38
2023-04-24T18:19:57.440Z,3.40
2023-04-24T18:25:14.053Z,2.38
2023-04-24T18:30:32.567Z,2.33
2023-04-24T18:35:48.592Z,2.70
2023-04-24T18:41:04.625Z,3.67
2023-04-24T18:46:20.561Z,2.97
2023-04-24T18:51:50.168Z,3.50
2023-04-24T18:57:09.103Z,3.35
2023-04-24T19:02:25.945Z,2.50
2023-04-24T19:07:42.406Z,3.63
2023-04-24T19:12:58.072Z,2.35
2023-04-24T19:18:13.973Z,2.83
2023-04-24T19:23:30.080Z,3.55
2023-04-24T19:28:46.159Z,2.80
2023-04-24T19:34:01.848Z,2.08
2023-04-24T19:39:17.716Z,2.85
2023-04-24T19:44:33.145Z,2.75
2023-04-24T19:49:49.368Z,3.42
2023-04-24T19:55:05.785Z,2.53
2023-04-24T20:00:21.526Z,2.40
2023-04-24T20:05:37.631Z,2.75
2023-04-24T20:10:54.780Z,2.58
2023-04-24T20:16:11.554Z,2.22
2023-04-24T20:21:28.769Z,8.93
2023-04-24T20:26:44.710Z,9.88
2023-04-24T20:32:00.672Z,10.57
2023-04-24T20:37:16.460Z,8.88
2023-04-24T20:42:35.477Z,7.65
2023-04-24T20:47:51.491Z,4.63
2023-04-24T20:53:09.350Z,4.38
2023-04-24T20:58:24.873Z,2.45
2023-04-24T21:03:41.571Z,2.35
2023-04-24T21:08:57.457Z,2.38
2023-04-24T21:14:12.999Z,1.77
2023-04-24T21:19:28.826Z,2.05
2023-04-24T21:24:44.670Z,1.90
2023-04-24T21:30:00.830Z,2.70
2023-04-24T21:35:16.613Z,2.90
2023-04-24T21:40:32.685Z,3.85
2023-04-24T21:45:48.500Z,3.55
2023-04-24T21:51:04.423Z,5.40
2023-04-24T21:56:20.747Z,4.10
2023-04-24T22:01:36.548Z,4.22
2023-04-24T22:06:55.490Z,5.10
2023-04-24T22:12:11.800Z,4.18
2023-04-24T22:17:28.001Z,4.90
2023-04-24T22:22:43.699Z,5.35
2023-04-24T22:27:59.044Z,5.32
2023-04-24T22:33:15.143Z,4.97
2023-04-24T22:38:31.314Z,5.55
2023-04-24T22:43:47.134Z,5.97
2023-04-24T22:49:02.933Z,6.40
2023-04-24T22:54:19.220Z,5.82
2023-04-24T22:59:34.869Z,6.72
2023-04-24T23:04:51.150Z,5.93
2023-04-24T23:10:07.507Z,6.05
2023-04-24T23:15:23.078Z,6.30
2023-04-24T23:20:39.205Z,6.35
2023-04-24T23:25:56.072Z,5.78
2023-04-24T23:31:11.902Z,6.07
2023-04-24T23:36:27.991Z,6.35
2023-04-24T23:41:44.781Z,6.40
2023-04-24T23:47:00.445Z,7.13
2023-04-24T23:52:16.875Z,7.05
2023-04-24T23:57:32.755Z,6.75
